createdAt,value
2018-04-17T00:00:16.655Z,13.20
2018-04-17T00:02:44.773Z,13.30
2018-04-17T00:05:12.910Z,13.30
2018-04-17T00:07:41.036Z,13.20
2018-04-17T00:10:10.000Z,13.00
2018-04-17T00:12:38.113Z,12.90
2018-04-17T00:15:06.264Z,13.00
2018-04-17T00:17:34.370Z,13.00
2018-04-17T00:20:02.480Z,12.90
2018-04-17T00:22:30.620Z,12.80
2018-04-17T00:24:58.756Z,12.80
2018-04-17T00:27:27.664Z,12.50
2018-04-17T00:29:56.540Z,12.50
2018-04-17T00:32:25.459Z,12.40
2018-04-17T00:34:53.574Z,12.40
2018-04-17T00:37:22.479Z,12.30
2018-04-17T00:39:50.599Z,12.30
2018-04-17T00:42:18.743Z,12.30
2018-04-17T00:44:47.617Z,12.20
2018-04-17T00:47:15.750Z,12.20
2018-04-17T00:49:43.875Z,12.00
2018-04-17T00:52:12.771Z,11.80
2018-04-17T00:54:41.654Z,11.70
2018-04-17T00:57:09.795Z,11.70
2018-04-17T00:59:37.897Z,11.70
2018-04-17T01:02:06.047Z,11.70
2018-04-17T01:04:34.174Z,11.70
2018-04-17T01:07:02.325Z,11.50
2018-04-17T01:09:30.433Z,11.50
2018-04-17T01:11:58.575Z,11.40
2018-04-17T01:14:27.474Z,11.50
2018-04-17T01:16:56.387Z,11.50
2018-04-17T01:19:24.510Z,11.50
2018-04-17T01:21:52.650Z,11.40
2018-04-17T01:24:20.773Z,11.40
2018-04-17T01:26:48.919Z,11.30
2018-04-17T01:29:17.027Z,11.20
2018-04-17T01:31:45.935Z,11.20
2018-04-17T01:34:14.054Z,11.20
2018-04-17T01:36:42.194Z,11.00
2018-04-17T01:39:10.297Z,10.90
2018-04-17T01:41:38.436Z,10.90
2018-04-17T01:44:06.540Z,10.90
2018-04-17T01:46:34.676Z,11.00
2018-04-17T01:49:02.855Z,11.10
2018-04-17T01:51:31.010Z,10.70
2018-04-17T01:53:59.889Z,10.60
2018-04-17T01:56:28.028Z,10.50
2018-04-17T01:58:56.231Z,10.50
2018-04-17T02:01:24.371Z,10.50
2018-04-17T02:03:52.497Z,10.50
2018-04-17T02:06:21.412Z,10.50
2018-04-17T02:08:49.525Z,10.50
2018-04-17T02:11:17.666Z,10.50
2018-04-17T02:13:45.778Z,10.50
2018-04-17T02:16:14.350Z,10.40
2018-04-17T02:18:42.451Z,10.20
2018-04-17T02:21:10.588Z,10.10
2018-04-17T02:23:39.466Z,10.10
2018-04-17T02:26:07.603Z,10.10
2018-04-17T02:28:36.493Z,10.30
2018-04-17T02:31:05.388Z,10.40
2018-04-17T02:33:34.270Z,10.10
2018-04-17T02:36:03.225Z,10.10
2018-04-17T02:38:31.341Z,10.10
2018-04-17T02:41:00.239Z,10.00
2018-04-17T02:43:28.348Z,10.00
2018-04-17T02:45:56.491Z,10.00
2018-04-17T02:48:24.607Z,9.90
2018-04-17T02:50:53.217Z,9.80
2018-04-17T02:53:21.315Z,9.70
2018-04-17T02:55:49.429Z,9.60
2018-04-17T02:58:17.566Z,9.60
2018-04-17T03:00:45.690Z,9.60
2018-04-17T03:03:13.813Z,9.70
2018-04-17T03:05:41.927Z,9.80
2018-04-17T03:08:10.055Z,9.60
2018-04-17T03:10:38.178Z,9.60
2018-04-17T03:13:06.311Z,9.60
2018-04-17T03:15:34.421Z,9.50
2018-04-17T03:18:02.664Z,9.40
2018-04-17T03:20:30.782Z,9.40
2018-04-17T03:22:58.918Z,9.30
2018-04-17T03:25:27.035Z,9.20
2018-04-17T03:27:55.179Z,9.30
2018-04-17T03:30:23.292Z,9.30
2018-04-17T03:32:52.191Z,9.50
2018-04-17T03:35:21.061Z,9.30
2018-04-17T03:37:49.189Z,9.30
2018-04-17T03:40:17.298Z,9.30
2018-04-17T03:42:45.435Z,9.20
2018-04-17T03:45:13.551Z,9.30
2018-04-17T03:47:41.674Z,9.20
2018-04-17T03:50:09.781Z,9.10
2018-04-17T03:52:37.911Z,9.10
2018-04-17T03:55:06.030Z,9.10
2018-04-17T03:57:34.159Z,9.30
2018-04-17T04:00:02.265Z,9.30
2018-04-17T04:02:35.089Z,9.10
2018-04-17T04:05:03.965Z,9.10
2018-04-17T04:07:32.100Z,9.00
2018-04-17T04:10:00.205Z,9.10
2018-04-17T04:12:28.329Z,9.00
2018-04-17T04:14:56.434Z,8.90
2018-04-17T04:17:36.502Z,8.90
2018-04-17T04:20:16.518Z,8.90
2018-04-17T04:22:56.403Z,8.90
2018-04-17T04:25:36.985Z,8.90
2018-04-17T04:28:05.120Z,8.90
2018-04-17T04:30:33.227Z,8.80
2018-04-17T04:33:01.349Z,8.70
2018-04-17T04:35:30.332Z,8.80
2018-04-17T04:37:58.460Z,8.80
2018-04-17T04:40:26.562Z,8.80
2018-04-17T04:42:54.706Z,8.90
2018-04-17T04:45:22.810Z,8.90
2018-04-17T04:47:50.929Z,9.00
2018-04-17T04:50:19.035Z,9.00
2018-04-17T04:52:47.930Z,8.90
2018-04-17T04:55:16.937Z,9.00
2018-04-17T04:57:45.078Z,9.00
2018-04-17T05:00:13.186Z,8.90
2018-04-17T05:02:41.328Z,8.90
2018-04-17T05:05:09.501Z,8.80
2018-04-17T05:07:37.622Z,8.80
2018-04-17T05:10:05.730Z,8.60
2018-04-17T05:12:33.857Z,8.70
2018-04-17T05:15:02.044Z,8.80
2018-04-17T05:17:30.170Z,8.90
2018-04-17T05:19:58.272Z,9.00
2018-04-17T05:22:26.415Z,9.20
2018-04-17T05:24:54.517Z,9.20
2018-04-17T05:27:23.423Z,9.90
2018-04-17T05:29:51.539Z,9.90
2018-04-17T05:32:19.678Z,10.20
2018-04-17T05:34:47.790Z,10.50
2018-04-17T05:37:15.905Z,10.80
2018-04-17T05:39:44.055Z,11.00
2018-04-17T05:42:12.473Z,11.20
2018-04-17T05:44:40.710Z,11.60
2018-04-17T05:47:08.842Z,12.30
2018-04-17T05:49:37.758Z,13.60
2018-04-17T05:52:05.878Z,13.60
2018-04-17T05:54:34.020Z,14.10
2018-04-17T05:57:02.124Z,14.70
2018-04-17T05:59:30.257Z,15.10
2018-04-17T06:01:58.567Z,15.50
2018-04-17T06:04:27.462Z,16.20
2018-04-17T06:06:56.342Z,16.80
2018-04-17T06:09:25.246Z,17.30
2018-04-17T06:11:53.375Z,17.30
2018-04-17T06:14:21.522Z,18.10
2018-04-17T06:16:49.624Z,19.10
2018-04-17T06:21:47.148Z,21.20
2018-04-17T06:24:15.287Z,22.10
2018-04-17T06:26:43.397Z,22.80
2018-04-17T06:41:38.486Z,27.20
2018-04-17T06:44:07.364Z,28.10
2018-04-17T06:46:35.583Z,28.10
2018-04-17T06:49:04.557Z,28.70
2018-04-17T06:51:32.680Z,28.70
2018-04-17T06:54:01.218Z,28.70
2018-04-17T06:56:30.188Z,28.80
2018-04-17T06:58:58.512Z,29.30
